createdAt,value
2019-02-22T00:00:10.072Z,68.4
2019-02-22T00:15:10.011Z,66.7
2019-02-22T00:30:10.186Z,67.2
2019-02-22T00:45:10.213Z,69.2
2019-02-22T01:00:10.145Z,72
2019-02-22T01:15:10.188Z,72.3
2019-02-22T01:30:10.470Z,71.6
2019-02-22T01:45:10.299Z,72.6
2019-02-22T02:00:10.386Z,74.3
2019-02-22T02:17:21.085Z,75.3
2019-02-22T02:32:20.233Z,76.3
2019-02-22T02:47:21.334Z,77.1
2019-02-22T03:02:20.346Z,77.7
2019-02-22T03:17:21.474Z,77.5
2019-02-22T03:32:20.701Z,78.3
2019-02-22T03:47:21.777Z,78
2019-02-22T04:02:20.737Z,77.4
2019-02-22T04:17:21.856Z,77.4
2019-02-22T04:32:20.956Z,80
2019-02-22T04:47:20.005Z,83
2019-02-22T05:02:21.107Z,84.1
2019-02-22T05:17:20.251Z,85.9
2019-02-22T05:32:21.428Z,85.5
2019-02-22T05:47:20.383Z,86.3
2019-02-22T06:02:21.506Z,87.1
2019-02-22T06:17:20.580Z,87.5
2019-02-22T06:32:21.812Z,88
2019-02-22T06:47:23.297Z,89.1
2019-02-22T07:02:21.889Z,89.4
2019-02-22T07:17:20.967Z,89.5
2019-02-22T07:32:22.108Z,90
2019-02-22T07:45:11.732Z,90
2019-02-22T08:02:22.333Z,90.7
2019-02-22T08:17:21.355Z,90.7
2019-02-22T08:32:22.472Z,90.7
2019-02-22T08:45:12.394Z,90.3
2019-02-22T09:02:22.717Z,90.5
2019-02-22T09:17:13.540Z,91
2019-02-22T09:32:14.651Z,91
2019-02-22T09:47:15.801Z,90.7
2019-02-22T10:04:25.937Z,91.2
2019-02-22T10:17:16.018Z,91.1
2019-02-22T10:32:16.142Z,91.2
2019-02-22T10:45:04.996Z,91.3
2019-02-22T11:02:15.243Z,91
2019-02-22T11:15:04.991Z,90.8
2019-02-22T11:32:15.438Z,90.8
2019-02-22T11:45:05.082Z,90.1
2019-02-22T12:00:05.836Z,88.2
2019-02-22T12:15:05.686Z,87.8
2019-02-22T12:32:17.312Z,86.5
2019-02-22T12:45:05.758Z,86.3
2019-02-22T13:00:06.028Z,84.9
2019-02-22T13:17:17.123Z,81
2019-02-22T13:32:16.223Z,80.2
2019-02-22T13:47:15.263Z,78.9
2019-02-22T14:00:06.664Z,78
2019-02-22T14:17:17.505Z,78.5
2019-02-22T14:32:20.664Z,80.3
2019-02-22T14:45:11.121Z,79.9
